sensor_id;sensor_type;location;lat;lon;timestamp;temperature;humidity
41435;DHT22;27177;22.262;114.192;2023-05-10T00:00:22;22.00;99.90
41435;DHT22;27177;22.262;114.192;2023-05-10T00:02:49;22.00;99.90
41435;DHT22;27177;22.262;114.192;2023-05-10T00:05:15;22.10;99.90
41435;DHT22;27177;22.262;114.192;2023-05-10T00:07:41;22.10;99.90
41435;DHT22;27177;22.262;114.192;2023-05-10T00:10:10;22.10;99.90
41435;DHT22;27177;22.262;114.192;2023-05-10T00:12:37;22.10;99.90
41435;DHT22;27177;22.262;114.192;2023-05-10T00:15:03;22.10;99.90
41435;DHT22;27177;22.262;114.192;2023-05-10T00:17:29;22.20;99.90
41435;DHT22;27177;22.262;114.192;2023-05-10T00:19:56;22.20;99.90
41435;DHT22;27177;22.262;114.192;2023-05-10T00:22:23;22.30;99.90
41435;DHT22;27177;22.262;114.192;2023-05-10T00:24:49;22.40;99.90
41435;DHT22;27177;22.262;114.192;2023-05-10T00:27:15;22.40;99.90
41435;DHT22;27177;22.262;114.192;2023-05-10T00:29:41;22.40;99.90
41435;DHT22;27177;22.262;114.192;2023-05-10T00:32:08;22.50;99.90
41435;DHT22;27177;22.262;114.192;2023-05-10T00:34:34;22.50;99.90
41435;DHT22;27177;22.262;114.192;2023-05-10T00:37:00;22.50;99.90
41435;DHT22;27177;22.262;114.192;2023-05-10T00:39:27;22.50;99.90
41435;DHT22;27177;22.262;114.192;2023-05-10T00:41:54;22.50;99.90
41435;DHT22;27177;22.262;114.192;2023-05-10T00:44:20;22.60;99.90
41435;DHT22;27177;22.262;114.192;2023-05-10T00:46:46;22.70;99.90
41435;DHT22;27177;22.262;114.192;2023-05-10T00:49:13;22.80;99.90
41435;DHT22;27177;22.262;114.192;2023-05-10T00:51:40;22.90;99.90
41435;DHT22;27177;22.262;114.192;2023-05-10T00:54:09;23.00;99.90
41435;DHT22;27177;22.262;114.192;2023-05-10T00:56:37;23.00;99.90
41435;DHT22;27177;22.262;114.192;2023-05-10T00:59:03;23.20;99.90
41435;DHT22;27177;22.262;114.192;2023-05-10T01:01:29;23.30;99.90
41435;DHT22;27177;22.262;114.192;2023-05-10T01:03:56;23.40;99.90
41435;DHT22;27177;22.262;114.192;2023-05-10T01:06:22;23.50;99.90
41435;DHT22;27177;22.262;114.192;2023-05-10T01:08:48;23.70;99.90
41435;DHT22;27177;22.262;114.192;2023-05-10T01:11:15;23.70;99.90
41435;DHT22;27177;22.262;114.192;2023-05-10T01:13:42;23.70;99.90
41435;DHT22;27177;22.262;114.192;2023-05-10T01:16:09;23.70;99.90
41435;DHT22;27177;22.262;114.192;2023-05-10T01:18:36;23.70;99.90
41435;DHT22;27177;22.262;114.192;2023-05-10T01:21:23;23.70;99.90
41435;DHT22;27177;22.262;114.192;2023-05-10T01:26:24;23.80;99.90
41435;DHT22;27177;22.262;114.192;2023-05-10T01:33:59;23.80;99.90
41435;DHT22;27177;22.262;114.192;2023-05-10T01:38:59;23.90;99.90
41435;DHT22;27177;22.262;114.192;2023-05-10T01:41:48;24.00;99.90
41435;DHT22;27177;22.262;114.192;2023-05-10T01:46:53;24.10;99.90
41435;DHT22;27177;22.262;114.192;2023-05-10T01:49:26;24.10;99.90
41435;DHT22;27177;22.262;114.192;2023-05-10T01:51:57;24.20;99.90
41435;DHT22;27177;22.262;114.192;2023-05-10T01:54:24;24.30;99.90
41435;DHT22;27177;22.262;114.192;2023-05-10T01:56:52;24.10;99.90
41435;DHT22;27177;22.262;114.192;2023-05-10T01:59:21;23.90;99.90
41435;DHT22;27177;22.262;114.192;2023-05-10T02:01:48;23.80;99.90
41435;DHT22;27177;22.262;114.192;2023-05-10T02:04:15;23.80;99.90
41435;DHT22;27177;22.262;114.192;2023-05-10T02:06:43;23.80;99.90
41435;DHT22;27177;22.262;114.192;2023-05-10T02:09:10;24.00;99.90
41435;DHT22;27177;22.262;114.192;2023-05-10T02:11:39;24.00;99.90
41435;DHT22;27177;22.262;114.192;2023-05-10T02:14:18;24.00;99.90
41435;DHT22;27177;22.262;114.192;2023-05-10T02:19:52;24.10;99.90
41435;DHT22;27177;22.262;114.192;2023-05-10T02:22:40;24.30;99.90
41435;DHT22;27177;22.262;114.192;2023-05-10T02:25:07;24.10;99.90
41435;DHT22;27177;22.262;114.192;2023-05-10T02:27:34;24.10;99.90
41435;DHT22;27177;22.262;114.192;2023-05-10T02:30:01;23.90;99.90
41435;DHT22;27177;22.262;114.192;2023-05-10T02:32:28;24.00;99.90
41435;DHT22;27177;22.262;114.192;2023-05-10T02:34:54;24.00;99.90
41435;DHT22;27177;22.262;114.192;2023-05-10T02:37:22;24.10;99.90
41435;DHT22;27177;22.262;114.192;2023-05-10T02:39:52;24.30;99.90
41435;DHT22;27177;22.262;114.192;2023-05-10T02:42:20;24.70;99.90
41435;DHT22;27177;22.262;114.192;2023-05-10T02:44:48;24.80;99.90
41435;DHT22;27177;22.262;114.192;2023-05-10T02:47:16;24.90;99.90
41435;DHT22;27177;22.262;114.192;2023-05-10T02:49:43;25.00;99.90
41435;DHT22;27177;22.262;114.192;2023-05-10T02:52:10;25.00;99.90
41435;DHT22;27177;22.262;114.192;2023-05-10T02:54:41;25.00;99.90
41435;DHT22;27177;22.262;114.192;2023-05-10T02:57:10;25.00;99.90
41435;DHT22;27177;22.262;114.192;2023-05-10T02:59:37;24.90;99.90
41435;DHT22;27177;22.262;114.192;2023-05-10T03:02:03;25.10;99.90
41435;DHT22;27177;22.262;114.192;2023-05-10T03:04:29;25.10;99.90
41435;DHT22;27177;22.262;114.192;2023-05-10T03:06:56;25.10;99.90
41435;DHT22;27177;22.262;114.192;2023-05-10T03:09:22;25.10;99.90
41435;DHT22;27177;22.262;114.192;2023-05-10T03:12:11;25.10;99.90
41435;DHT22;27177;22.262;114.192;2023-05-10T03:20:04;24.80;99.90
41435;DHT22;27177;22.262;114.192;2023-05-10T03:22:37;24.60;99.90
41435;DHT22;27177;22.262;114.192;2023-05-10T03:30:15;24.00;99.90
41435;DHT22;27177;22.262;114.192;2023-05-10T03:32:41;23.90;99.90
41435;DHT22;27177;22.262;114.192;2023-05-10T03:35:08;23.90;99.90
41435;DHT22;27177;22.262;114.192;2023-05-10T03:37:35;23.90;99.90
41435;DHT22;27177;22.262;114.192;2023-05-10T03:40:01;23.90;99.90
41435;DHT22;27177;22.262;114.192;2023-05-10T03:45:03;23.90;99.90
41435;DHT22;27177;22.262;114.192;2023-05-10T03:47:30;24.00;99.90
41435;DHT22;27177;22.262;114.192;2023-05-10T03:49:56;24.10;99.90
41435;DHT22;27177;22.262;114.192;2023-05-10T03:52:22;24.00;99.90
41435;DHT22;27177;22.262;114.192;2023-05-10T03:59:59;23.70;99.90
41435;DHT22;27177;22.262;114.192;2023-05-10T04:02:26;23.60;99.90
41435;DHT22;27177;22.262;114.192;2023-05-10T04:04:52;23.50;99.90
41435;DHT22;27177;22.262;114.192;2023-05-10T04:09:53;23.50;99.90
41435;DHT22;27177;22.262;114.192;2023-05-10T04:12:20;23.50;99.90
41435;DHT22;27177;22.262;114.192;2023-05-10T04:17:31;23.40;99.90
41435;DHT22;27177;22.262;114.192;2023-05-10T04:19:57;23.40;99.90
41435;DHT22;27177;22.262;114.192;2023-05-10T04:22:23;23.40;99.90
41435;DHT22;27177;22.262;114.192;2023-05-10T04:24:49;23.40;99.90
41435;DHT22;27177;22.262;114.192;2023-05-10T04:32:39;23.50;99.90
41435;DHT22;27177;22.262;114.192;2023-05-10T04:35:05;23.60;99.90
41435;DHT22;27177;22.262;114.192;2023-05-10T04:40:07;23.70;99.90
41435;DHT22;27177;22.262;114.192;2023-05-10T04:42:33;23.90;99.90
41435;DHT22;27177;22.262;114.192;2023-05-10T04:45:00;23.90;99.90
41435;DHT22;27177;22.262;114.192;2023-05-10T04:47:26;24.00;99.90
41435;DHT22;27177;22.262;114.192;2023-05-10T04:54:57;24.20;99.90
41435;DHT22;27177;22.262;114.192;2023-05-10T04:57:23;24.20;99.90
41435;DHT22;27177;22.262;114.192;2023-05-10T04:59:50;24.10;99.90
41435;DHT22;27177;22.262;114.192;2023-05-10T05:02:16;23.90;99.90
41435;DHT22;27177;22.262;114.192;2023-05-10T05:04:42;23.90;99.90
41435;DHT22;27177;22.262;114.192;2023-05-10T05:07:09;23.90;99.90
41435;DHT22;27177;22.262;114.192;2023-05-10T05:09:35;23.80;99.90
41435;DHT22;27177;22.262;114.192;2023-05-10T05:12:01;23.70;99.90
41435;DHT22;27177;22.262;114.192;2023-05-10T05:14:28;23.60;99.90
41435;DHT22;27177;22.262;114.192;2023-05-10T05:16:54;23.60;99.90
41435;DHT22;27177;22.262;114.192;2023-05-10T05:19:21;23.60;99.90
41435;DHT22;27177;22.262;114.192;2023-05-10T05:21:48;23.60;99.90
41435;DHT22;27177;22.262;114.192;2023-05-10T05:24:14;23.70;99.90
41435;DHT22;27177;22.262;114.192;2023-05-10T05:26:40;23.50;99.90
41435;DHT22;27177;22.262;114.192;2023-05-10T05:29:07;23.50;99.90
41435;DHT22;27177;22.262;114.192;2023-05-10T05:34:08;23.60;99.90
41435;DHT22;27177;22.262;114.192;2023-05-10T05:36:37;23.50;99.90
41435;DHT22;27177;22.262;114.192;2023-05-10T05:39:06;23.40;99.90
41435;DHT22;27177;22.262;114.192;2023-05-10T05:41:33;23.40;99.90
41435;DHT22;27177;22.262;114.192;2023-05-10T05:43:59;23.30;99.90
41435;DHT22;27177;22.262;114.192;2023-05-10T05:46:26;23.30;99.90
41435;DHT22;27177;22.262;114.192;2023-05-10T05:48:53;23.50;99.90
41435;DHT22;27177;22.262;114.192;2023-05-10T05:51:19;23.50;99.90
41435;DHT22;27177;22.262;114.192;2023-05-10T05:53:46;23.60;99.90
41435;DHT22;27177;22.262;114.192;2023-05-10T05:56:13;23.60;99.90
41435;DHT22;27177;22.262;114.192;2023-05-10T05:58:42;23.80;99.90
41435;DHT22;27177;22.262;114.192;2023-05-10T06:01:08;23.90;99.90
41435;DHT22;27177;22.262;114.192;2023-05-10T06:03:34;24.00;99.90
41435;DHT22;27177;22.262;114.192;2023-05-10T06:06:00;24.10;99.90
41435;DHT22;27177;22.262;114.192;2023-05-10T06:08:27;24.20;99.90
41435;DHT22;27177;22.262;114.192;2023-05-10T06:10:53;24.40;99.90
41435;DHT22;27177;22.262;114.192;2023-05-10T06:13:19;24.50;99.90
41435;DHT22;27177;22.262;114.192;2023-05-10T06:15:45;24.60;99.90
41435;DHT22;27177;22.262;114.192;2023-05-10T06:18:12;24.70;99.90
41435;DHT22;27177;22.262;114.192;2023-05-10T06:20:38;24.80;99.90
41435;DHT22;27177;22.262;114.192;2023-05-10T06:23:04;24.90;99.90
41435;DHT22;27177;22.262;114.192;2023-05-10T06:25:30;25.10;99.90
41435;DHT22;27177;22.262;114.192;2023-05-10T06:27:57;25.10;99.90
41435;DHT22;27177;22.262;114.192;2023-05-10T06:30:24;25.00;99.90
41435;DHT22;27177;22.262;114.192;2023-05-10T06:32:54;25.10;99.90
41435;DHT22;27177;22.262;114.192;2023-05-10T06:35:20;25.20;99.90
41435;DHT22;27177;22.262;114.192;2023-05-10T06:37:46;25.20;99.90
41435;DHT22;27177;22.262;114.192;2023-05-10T06:40:13;25.10;99.90
41435;DHT22;27177;22.262;114.192;2023-05-10T06:42:39;25.10;99.90
41435;DHT22;27177;22.262;114.192;2023-05-10T06:45:05;25.10;99.90
41435;DHT22;27177;22.262;114.192;2023-05-10T06:47:32;24.90;99.90
41435;DHT22;27177;22.262;114.192;2023-05-10T06:49:58;24.80;99.90
41435;DHT22;27177;22.262;114.192;2023-05-10T06:52:24;24.60;99.90
41435;DHT22;27177;22.262;114.192;2023-05-10T06:54:51;24.50;99.90
41435;DHT22;27177;22.262;114.192;2023-05-10T06:57:17;24.30;99.90
41435;DHT22;27177;22.262;114.192;2023-05-10T06:59:43;24.00;99.90
41435;DHT22;27177;22.262;114.192;2023-05-10T07:02:12;24.00;99.90
41435;DHT22;27177;22.262;114.192;2023-05-10T07:04:40;24.00;99.90
41435;DHT22;27177;22.262;114.192;2023-05-10T07:07:06;23.90;99.90
41435;DHT22;27177;22.262;114.192;2023-05-10T07:09:34;23.90;99.90
41435;DHT22;27177;22.262;114.192;2023-05-10T07:12:00;23.80;99.90
41435;DHT22;27177;22.262;114.192;2023-05-10T07:14:27;23.70;99.90
41435;DHT22;27177;22.262;114.192;2023-05-10T07:16:54;23.60;99.90
41435;DHT22;27177;22.262;114.192;2023-05-10T07:19:22;23.60;99.90
41435;DHT22;27177;22.262;114.192;2023-05-10T07:21:48;23.40;99.90
41435;DHT22;27177;22.262;114.192;2023-05-10T07:24:15;23.40;99.90
41435;DHT22;27177;22.262;114.192;2023-05-10T07:26:42;23.40;99.90
41435;DHT22;27177;22.262;114.192;2023-05-10T07:29:08;23.40;99.90
41435;DHT22;27177;22.262;114.192;2023-05-10T07:31:35;23.40;99.90
41435;DHT22;27177;22.262;114.192;2023-05-10T07:34:01;23.30;99.90
41435;DHT22;27177;22.262;114.192;2023-05-10T07:36:28;23.30;99.90
41435;DHT22;27177;22.262;114.192;2023-05-10T07:38:54;23.40;99.90
41435;DHT22;27177;22.262;114.192;2023-05-10T07:41:22;23.30;99.90
41435;DHT22;27177;22.262;114.192;2023-05-10T07:43:48;23.40;99.90
41435;DHT22;27177;22.262;114.192;2023-05-10T07:46:14;23.40;99.90
41435;DHT22;27177;22.262;114.192;2023-05-10T07:51:16;23.50;99.90
41435;DHT22;27177;22.262;114.192;2023-05-10T07:53:42;23.60;99.90
41435;DHT22;27177;22.262;114.192;2023-05-10T07:56:27;23.80;99.90
41435;DHT22;27177;22.262;114.192;2023-05-10T07:58:55;23.90;99.90
41435;DHT22;27177;22.262;114.192;2023-05-10T08:01:22;23.90;99.90
41435;DHT22;27177;22.262;114.192;2023-05-10T08:03:48;23.80;99.90
41435;DHT22;27177;22.262;114.192;2023-05-10T08:14:02;23.60;99.90
41435;DHT22;27177;22.262;114.192;2023-05-10T08:16:28;23.60;99.90
41435;DHT22;27177;22.262;114.192;2023-05-10T08:18:54;23.50;99.90
41435;DHT22;27177;22.262;114.192;2023-05-10T08:21:21;23.50;99.90
41435;DHT22;27177;22.262;114.192;2023-05-10T08:23:47;23.50;99.90
41435;DHT22;27177;22.262;114.192;2023-05-10T08:26:14;23.50;99.90
41435;DHT22;27177;22.262;114.192;2023-05-10T08:28:40;23.50;99.90
41435;DHT22;27177;22.262;114.192;2023-05-10T08:33:42;23.50;99.90
41435;DHT22;27177;22.262;114.192;2023-05-10T08:36:08;23.50;99.90
41435;DHT22;27177;22.262;114.192;2023-05-10T08:38:35;23.50;99.90
41435;DHT22;27177;22.262;114.192;2023-05-10T08:41:01;23.40;99.90
41435;DHT22;27177;22.262;114.192;2023-05-10T08:43:28;23.30;99.90
41435;DHT22;27177;22.262;114.192;2023-05-10T08:45:54;23.30;99.90
41435;DHT22;27177;22.262;114.192;2023-05-10T08:48:22;23.20;99.90
41435;DHT22;27177;22.262;114.192;2023-05-10T08:50:49;23.10;99.90
41435;DHT22;27177;22.262;114.192;2023-05-10T08:53:17;23.10;99.90
41435;DHT22;27177;22.262;114.192;2023-05-10T08:55:45;23.10;99.90
41435;DHT22;27177;22.262;114.192;2023-05-10T08:58:12;23.10;99.90
41435;DHT22;27177;22.262;114.192;2023-05-10T09:00:38;23.10;99.90
41435;DHT22;27177;22.262;114.192;2023-05-10T09:03:05;23.10;99.90
41435;DHT22;27177;22.262;114.192;2023-05-10T09:05:31;23.00;99.90
41435;DHT22;27177;22.262;114.192;2023-05-10T09:07:58;22.90;99.90
41435;DHT22;27177;22.262;114.192;2023-05-10T09:10:27;23.00;99.90
41435;DHT22;27177;22.262;114.192;2023-05-10T09:12:55;23.00;99.90
41435;DHT22;27177;22.262;114.192;2023-05-10T09:15:22;23.00;99.90
41435;DHT22;27177;22.262;114.192;2023-05-10T09:17:50;23.00;99.90
41435;DHT22;27177;22.262;114.192;2023-05-10T09:20:17;22.90;99.90
41435;DHT22;27177;22.262;114.192;2023-05-10T09:22:43;22.80;99.90
41435;DHT22;27177;22.262;114.192;2023-05-10T09:32:47;22.80;99.90
41435;DHT22;27177;22.262;114.192;2023-05-10T09:35:14;22.70;99.90
41435;DHT22;27177;22.262;114.192;2023-05-10T09:37:45;22.80;99.90
41435;DHT22;27177;22.262;114.192;2023-05-10T09:40:14;22.80;99.90
41435;DHT22;27177;22.262;114.192;2023-05-10T09:42:42;22.70;99.90
41435;DHT22;27177;22.262;114.192;2023-05-10T09:45:08;22.70;99.90
41435;DHT22;27177;22.262;114.192;2023-05-10T09:47:35;22.70;99.90
41435;DHT22;27177;22.262;114.192;2023-05-10T09:50:02;22.70;99.90
41435;DHT22;27177;22.262;114.192;2023-05-10T09:52:30;22.70;99.90
41435;DHT22;27177;22.262;114.192;2023-05-10T09:54:56;22.70;99.90
41435;DHT22;27177;22.262;114.192;2023-05-10T09:57:23;22.60;99.90
41435;DHT22;27177;22.262;114.192;2023-05-10T09:59:51;22.60;99.90
41435;DHT22;27177;22.262;114.192;2023-05-10T10:02:19;22.50;99.90
41435;DHT22;27177;22.262;114.192;2023-05-10T10:04:48;22.60;99.90
41435;DHT22;27177;22.262;114.192;2023-05-10T10:07:14;22.60;99.90
41435;DHT22;27177;22.262;114.192;2023-05-10T10:09:41;22.50;99.90
41435;DHT22;27177;22.262;114.192;2023-05-10T10:12:07;22.50;99.90
41435;DHT22;27177;22.262;114.192;2023-05-10T10:14:34;22.50;99.90
41435;DHT22;27177;22.262;114.192;2023-05-10T10:17:00;22.50;99.90
41435;DHT22;27177;22.262;114.192;2023-05-10T10:19:27;22.50;99.90
41435;DHT22;27177;22.262;114.192;2023-05-10T10:21:54;22.50;99.90
41435;DHT22;27177;22.262;114.192;2023-05-10T10:24:20;22.50;99.90
41435;DHT22;27177;22.262;114.192;2023-05-10T10:26:46;22.50;99.90
41435;DHT22;27177;22.262;114.192;2023-05-10T10:31:41;22.50;99.90
41435;DHT22;27177;22.262;114.192;2023-05-10T10:34:17;22.50;99.90
41435;DHT22;27177;22.262;114.192;2023-05-10T10:36:47;22.50;99.90
41435;DHT22;27177;22.262;114.192;2023-05-10T10:39:14;22.50;99.90
41435;DHT22;27177;22.262;114.192;2023-05-10T10:41:57;22.60;99.90
41435;DHT22;27177;22.262;114.192;2023-05-10T10:44:24;22.60;99.90
41435;DHT22;27177;22.262;114.192;2023-05-10T10:49:49;22.50;99.90
41435;DHT22;27177;22.262;114.192;2023-05-10T10:55:09;22.50;99.90
41435;DHT22;27177;22.262;114.192;2023-05-10T11:00:20;22.50;99.90
41435;DHT22;27177;22.262;114.192;2023-05-10T11:02:48;22.60;99.90
41435;DHT22;27177;22.262;114.192;2023-05-10T11:05:34;22.50;99.90
41435;DHT22;27177;22.262;114.192;2023-05-10T11:08:08;22.50;99.90
41435;DHT22;27177;22.262;114.192;2023-05-10T11:10:35;22.50;99.90
41435;DHT22;27177;22.262;114.192;2023-05-10T11:13:02;22.50;99.90
41435;DHT22;27177;22.262;114.192;2023-05-10T11:15:32;22.50;99.90
41435;DHT22;27177;22.262;114.192;2023-05-10T11:17:58;22.50;99.90
41435;DHT22;27177;22.262;114.192;2023-05-10T11:20:28;22.50;99.90
41435;DHT22;27177;22.262;114.192;2023-05-10T11:23:10;22.40;99.90
41435;DHT22;27177;22.262;114.192;2023-05-10T11:25:43;22.40;99.90
41435;DHT22;27177;22.262;114.192;2023-05-10T11:28:13;22.40;99.90
41435;DHT22;27177;22.262;114.192;2023-05-10T11:30:40;22.40;99.90
41435;DHT22;27177;22.262;114.192;2023-05-10T11:33:06;22.30;99.90
41435;DHT22;27177;22.262;114.192;2023-05-10T11:35:39;22.30;99.90
41435;DHT22;27177;22.262;114.192;2023-05-10T11:38:07;22.30;99.90
41435;DHT22;27177;22.262;114.192;2023-05-10T11:40:33;22.30;99.90
41435;DHT22;27177;22.262;114.192;2023-05-10T11:43:00;22.30;99.90
41435;DHT22;27177;22.262;114.192;2023-05-10T11:45:26;22.30;99.90
41435;DHT22;27177;22.262;114.192;2023-05-10T11:47:55;22.30;99.90
41435;DHT22;27177;22.262;114.192;2023-05-10T11:50:21;22.30;99.90
41435;DHT22;27177;22.262;114.192;2023-05-10T11:52:51;22.30;99.90
41435;DHT22;27177;22.262;114.192;2023-05-10T11:55:18;22.30;99.90
41435;DHT22;27177;22.262;114.192;2023-05-10T11:57:44;22.30;99.90
41435;DHT22;27177;22.262;114.192;2023-05-10T12:00:16;22.30;99.90
41435;DHT22;27177;22.262;114.192;2023-05-10T12:02:42;22.30;99.90
41435;DHT22;27177;22.262;114.192;2023-05-10T12:05:09;22.30;99.90
41435;DHT22;27177;22.262;114.192;2023-05-10T12:07:35;22.30;99.90
41435;DHT22;27177;22.262;114.192;2023-05-10T12:25:35;22.20;99.90
41435;DHT22;27177;22.262;114.192;2023-05-10T12:28:06;22.10;99.90
41435;DHT22;27177;22.262;114.192;2023-05-10T12:35:47;22.10;99.90
41435;DHT22;27177;22.262;114.192;2023-05-10T12:38:30;22.10;99.90
41435;DHT22;27177;22.262;114.192;2023-05-10T12:43:33;22.20;99.90
41435;DHT22;27177;22.262;114.192;2023-05-10T12:46:09;22.10;99.90
41435;DHT22;27177;22.262;114.192;2023-05-10T12:48:37;22.10;99.90
41435;DHT22;27177;22.262;114.192;2023-05-10T13:01:25;22.10;99.90
41435;DHT22;27177;22.262;114.192;2023-05-10T13:03:51;22.10;99.90
41435;DHT22;27177;22.262;114.192;2023-05-10T13:06:18;22.10;99.90
41435;DHT22;27177;22.262;114.192;2023-05-10T13:24:16;22.10;99.90
41435;DHT22;27177;22.262;114.192;2023-05-10T13:37:04;22.20;99.90
41435;DHT22;27177;22.262;114.192;2023-05-10T13:39:31;22.20;99.90
41435;DHT22;27177;22.262;114.192;2023-05-10T13:44:35;22.10;99.90
41435;DHT22;27177;22.262;114.192;2023-05-10T13:57:23;22.20;99.90
41435;DHT22;27177;22.262;114.192;2023-05-10T14:07:35;22.20;99.90
41435;DHT22;27177;22.262;114.192;2023-05-10T14:10:02;22.20;99.90
41435;DHT22;27177;22.262;114.192;2023-05-10T14:25:40;22.20;99.90
41435;DHT22;27177;22.262;114.192;2023-05-10T14:38:55;22.20;99.90
41435;DHT22;27177;22.262;114.192;2023-05-10T14:41:29;22.20;99.90
41435;DHT22;27177;22.262;114.192;2023-05-10T14:46:48;22.20;99.90
41435;DHT22;27177;22.262;114.192;2023-05-10T15:02:07;22.10;99.90
41435;DHT22;27177;22.262;114.192;2023-05-10T15:04:33;22.00;99.90
41435;DHT22;27177;22.262;114.192;2023-05-10T15:07:00;22.00;99.90
41435;DHT22;27177;22.262;114.192;2023-05-10T15:09:26;22.00;99.90
41435;DHT22;27177;22.262;114.192;2023-05-10T15:11:57;22.00;99.90
41435;DHT22;27177;22.262;114.192;2023-05-10T15:14:23;22.00;99.90
41435;DHT22;27177;22.262;114.192;2023-05-10T15:16:50;22.00;99.90
41435;DHT22;27177;22.262;114.192;2023-05-10T15:21:51;22.00;99.90
41435;DHT22;27177;22.262;114.192;2023-05-10T15:24:18;22.00;99.90
41435;DHT22;27177;22.262;114.192;2023-05-10T15:31:55;22.00;99.90
41435;DHT22;27177;22.262;114.192;2023-05-10T15:34:22;22.00;99.90
41435;DHT22;27177;22.262;114.192;2023-05-10T15:36:48;22.20;99.90
41435;DHT22;27177;22.262;114.192;2023-05-10T15:39:14;22.00;99.90
41435;DHT22;27177;22.262;114.192;2023-05-10T15:41:41;22.00;99.90
41435;DHT22;27177;22.262;114.192;2023-05-10T15:44:07;22.00;99.90
41435;DHT22;27177;22.262;114.192;2023-05-10T15:46:33;22.00;99.90
41435;DHT22;27177;22.262;114.192;2023-05-10T15:48:59;22.00;99.90
41435;DHT22;27177;22.262;114.192;2023-05-10T15:51:40;22.00;99.90
41435;DHT22;27177;22.262;114.192;2023-05-10T15:54:06;21.90;99.90
41435;DHT22;27177;22.262;114.192;2023-05-10T15:56:32;22.00;99.90
41435;DHT22;27177;22.262;114.192;2023-05-10T16:04:10;22.00;99.90
41435;DHT22;27177;22.262;114.192;2023-05-10T16:09:12;21.90;99.90
41435;DHT22;27177;22.262;114.192;2023-05-10T16:11:38;21.90;99.90
41435;DHT22;27177;22.262;114.192;2023-05-10T16:14:16;21.90;99.90
41435;DHT22;27177;22.262;114.192;2023-05-10T16:22:04;21.90;99.90
41435;DHT22;27177;22.262;114.192;2023-05-10T16:24:30;21.90;99.90
41435;DHT22;27177;22.262;114.192;2023-05-10T16:26:57;21.80;99.90
41435;DHT22;27177;22.262;114.192;2023-05-10T16:34:34;21.80;99.90
41435;DHT22;27177;22.262;114.192;2023-05-10T16:39:35;21.80;99.90
41435;DHT22;27177;22.262;114.192;2023-05-10T16:42:01;21.80;99.90
41435;DHT22;27177;22.262;114.192;2023-05-10T16:47:03;21.80;99.90
41435;DHT22;27177;22.262;114.192;2023-05-10T17:09:11;21.80;99.90
41435;DHT22;27177;22.262;114.192;2023-05-10T17:14:13;21.90;99.90
41435;DHT22;27177;22.262;114.192;2023-05-10T17:19:14;21.90;99.90
41435;DHT22;27177;22.262;114.192;2023-05-10T17:21:40;21.90;99.90
41435;DHT22;27177;22.262;114.192;2023-05-10T17:24:06;21.80;99.90
41435;DHT22;27177;22.262;114.192;2023-05-10T17:29:08;21.80;99.90
41435;DHT22;27177;22.262;114.192;2023-05-10T17:31:35;21.80;99.90
41435;DHT22;27177;22.262;114.192;2023-05-10T17:34:02;21.80;99.90
41435;DHT22;27177;22.262;114.192;2023-05-10T17:39:02;21.80;99.90
41435;DHT22;27177;22.262;114.192;2023-05-10T17:46:39;21.80;99.90
41435;DHT22;27177;22.262;114.192;2023-05-10T17:49:06;21.80;99.90
41435;DHT22;27177;22.262;114.192;2023-05-10T17:51:32;21.80;99.90
41435;DHT22;27177;22.262;114.192;2023-05-10T17:56:27;21.80;99.90
41435;DHT22;27177;22.262;114.192;2023-05-10T17:58:54;21.80;99.90
41435;DHT22;27177;22.262;114.192;2023-05-10T18:03:48;21.90;99.90
41435;DHT22;27177;22.262;114.192;2023-05-10T18:11:25;21.90;99.90
41435;DHT22;27177;22.262;114.192;2023-05-10T18:13:51;21.90;99.90
41435;DHT22;27177;22.262;114.192;2023-05-10T18:18:52;21.90;99.90
41435;DHT22;27177;22.262;114.192;2023-05-10T18:21:19;21.90;99.90
41435;DHT22;27177;22.262;114.192;2023-05-10T18:28:56;21.90;99.90
41435;DHT22;27177;22.262;114.192;2023-05-10T18:36:35;21.90;99.90
41435;DHT22;27177;22.262;114.192;2023-05-10T18:41:36;21.90;99.90
41435;DHT22;27177;22.262;114.192;2023-05-10T18:51:49;21.90;99.90
41435;DHT22;27177;22.262;114.192;2023-05-10T18:56:51;21.90;99.90
41435;DHT22;27177;22.262;114.192;2023-05-10T18:59:17;21.90;99.90
41435;DHT22;27177;22.262;114.192;2023-05-10T19:01:43;21.90;99.90
41435;DHT22;27177;22.262;114.192;2023-05-10T19:06:45;21.90;99.90
41435;DHT22;27177;22.262;114.192;2023-05-10T19:16:57;21.90;99.90
41435;DHT22;27177;22.262;114.192;2023-05-10T19:19:23;21.90;99.90
41435;DHT22;27177;22.262;114.192;2023-05-10T19:21:50;21.90;99.90
41435;DHT22;27177;22.262;114.192;2023-05-10T19:24:18;21.90;99.90
41435;DHT22;27177;22.262;114.192;2023-05-10T19:29:33;21.70;99.90
41435;DHT22;27177;22.262;114.192;2023-05-10T19:32:02;21.90;99.90
41435;DHT22;27177;22.262;114.192;2023-05-10T19:34:29;21.90;99.90
41435;DHT22;27177;22.262;114.192;2023-05-10T19:36:55;21.90;99.90
41435;DHT22;27177;22.262;114.192;2023-05-10T19:39:21;21.90;99.90
41435;DHT22;27177;22.262;114.192;2023-05-10T19:41:47;21.90;99.90
41435;DHT22;27177;22.262;114.192;2023-05-10T19:44:14;21.90;99.90
41435;DHT22;27177;22.262;114.192;2023-05-10T19:46:40;21.90;99.90
41435;DHT22;27177;22.262;114.192;2023-05-10T19:49:06;21.90;99.90
41435;DHT22;27177;22.262;114.192;2023-05-10T19:51:32;21.90;99.90
41435;DHT22;27177;22.262;114.192;2023-05-10T19:53:59;21.90;99.90
41435;DHT22;27177;22.262;114.192;2023-05-10T19:56:25;21.90;99.90
41435;DHT22;27177;22.262;114.192;2023-05-10T19:58:53;21.90;99.90
41435;DHT22;27177;22.262;114.192;2023-05-10T20:01:19;21.90;99.90
41435;DHT22;27177;22.262;114.192;2023-05-10T20:03:45;21.90;99.90
41435;DHT22;27177;22.262;114.192;2023-05-10T20:06:12;21.90;99.90
41435;DHT22;27177;22.262;114.192;2023-05-10T20:17:04;21.90;99.90
41435;DHT22;27177;22.262;114.192;2023-05-10T20:19:30;21.90;99.90
41435;DHT22;27177;22.262;114.192;2023-05-10T20:27:07;21.90;99.90
41435;DHT22;27177;22.262;114.192;2023-05-10T20:29:33;21.80;99.90
41435;DHT22;27177;22.262;114.192;2023-05-10T20:32:00;21.80;99.90
41435;DHT22;27177;22.262;114.192;2023-05-10T20:34:26;21.80;99.90
41435;DHT22;27177;22.262;114.192;2023-05-10T20:36:53;21.70;99.90
41435;DHT22;27177;22.262;114.192;2023-05-10T20:39:19;21.70;99.90